Jose Advincula

Chefscout - Sporting Cristal
17 Jul 2027
Samstag
Verarbeitung

Persönlichkeit

Anpassungsfähigkeit (2) Ehrgeiz (10) Kontroverse (12) Loyalität (3) Druck (18) Professionalität (17) Fairness (3) Temperament (10)

Profil

Trainerstil Demokratisch
Lizenz Kontinentale C
Entschlossenheit 12
Menschenführung 13
Motivation 4
Disziplin 8
Arbeitszufriedenheit
81%
Ermüdung
0%
Rolle Chefscout
Gehalt 79.3K p/W
Vertrag 14.03.2030

Leistung

Verhalten Gut
Trainingseffektivität
21%
Spielerentwicklung
30%
Verletzungsprävention
20%
Taktische Umsetzung
35%

Letzte Ereignisse

Nahm an einer Scouting-Besprechung teil jetzt
Empfahl ein Transferziel jetzt
Nahm an einer Scouting-Besprechung teil 7T her
Empfahl ein Transferziel 7T her
Empfahl ein Transferziel 7T her
Nahm an einer Scouting-Besprechung teil 7T her
Nahm an einer Scouting-Besprechung teil 14T her
Legte dem Vorstand ein Dossier vor 14T her

Aktuell beobachtet

108
Spieler Verein Status Fähigkeit Vertrauen Beobachtet Zuletzt beobachtet Letzte Stimme
Abraham Paintsil Hasaacas Aktiv 85 / 102 40% 3 03.06.2027 -
Jonathan Bland Barnsley Aktiv 111 / 103 40% 3 03.06.2027 -
Facundo Infante Talleres Aktiv 91 / 91 40% 1 03.06.2027 -
Tiago Freitas Benfica Aktiv 114 / 132 40% 1 03.06.2027 -
Joel McGregor Swindon Town Aktiv 81 / 86 40% 2 02.06.2027 -
Martim Cunha Porto Aktiv 89 / 96 40% 1 02.06.2027 -
Simone Kosijer Triestina Aktiv 93 / 98 40% 1 02.06.2027 -
Konstantin Tyukavin Arsenal Aktiv 132 / 133 66% 1 01.06.2027 Befürworten
Gonzalo Plata Rosenborg Aktiv 133 / 134 66% 1 01.06.2027 Befürworten
Riquelme Thompson-Jones Shrewsbury Town Aktiv 109 / 109 40% 2 31.05.2027 -
Tobías Ramírez Sevilla Aktiv 128 / 114 40% 1 31.05.2027 -
Miguel Figueiredo Benfica Aktiv 121 / 117 40% 2 30.05.2027 -
Sam Curtis Swindon Town Aktiv 109 / 97 40% 2 30.05.2027 Mehr Infos nötig
Pietro Reggiori Pro Patria Aktiv 85 / 84 40% 1 29.05.2027 -
Leonardo Mendicino Bari Aktiv 107 / 123 40% 1 29.05.2027 -
Nahuel Leivas Montevideo City Torque Aktiv 109 / 116 40% 2 28.05.2027 -
Ezra Mayers West Ham United Aktiv 123 / 122 40% 1 28.05.2027 Mehr Infos nötig
Thiago Silvero Sevilla Aktiv 131 / 138 40% 2 26.05.2027 Mehr Infos nötig
Facundo Di Biasi Getafe Aktiv 120 / 130 40% 1 26.05.2027 -
Samuel Lucero Defensa y Justicia Aktiv 108 / 115 40% 1 24.05.2027 -
Jofre Torrents Ajax Aktiv 114 / 123 40% 1 24.05.2027 Mehr Infos nötig
Bakary Haïdara Hearts of Oak Aktiv 95 / 112 40% 1 23.05.2027 -
Agustín Obregón River Plate Aktiv 115 / 113 40% 1 23.05.2027 Mehr Infos nötig
Sebastián Flores Rayo Vallecano Aktiv 100 / 98 40% 3 21.05.2027 -
Maeson King Blackpool Aktiv 106 / 116 40% 2 21.05.2027 Mehr Infos nötig
Davide Bartesaghi AC Milan Aktiv 127 / 121 40% 1 20.05.2027 Mehr Infos nötig
Matías Gómez Valencia Aktiv 115 / 114 40% 2 15.05.2027 Mehr Infos nötig
Luis Rincon Atletico Venezuela Aktiv 100 / 99 40% 1 15.05.2027 -
Celías Ingenthron Platense Aktiv 117 / 130 40% 2 14.05.2027 Mehr Infos nötig
Christos Mouzakitis Hull City Aktiv 134 / 150 40% 1 14.05.2027 -
Gonçalo Oliveira Benfica Aktiv 119 / 117 40% 1 12.05.2027 -
Jonathan De Irastorza Levante Aktiv 126 / 110 40% 1 11.05.2027 -
Gladson Sulemana Liberty Professionals Aktiv 85 / 111 40% 1 08.05.2027 -
Sergio Casseres Llaneros Aktiv 74 / 74 40% 1 08.05.2027 -
Lucas Jetten Cambuur Aktiv 123 / 111 40% 1 06.05.2027 Mehr Infos nötig
Edmund Inusah WAFA Aktiv 69 / 95 40% 1 05.05.2027 -
Ignacio Perruzzi Celta Aktiv 136 / 139 40% 2 10.01.2027 -
Taras Mykhavko Dynamo Kyiv Aktiv 117 / 122 40% 1 10.01.2027 -
Dylan Lawlor Cardiff City Aktiv 100 / 115 40% 1 06.01.2027 -
Zoltan Bese Haladas Aktiv 112 / 123 40% 1 06.01.2027 -
Christian Krasnodar Aktiv 137 / 132 40% 1 28.12.2026 -
Jack McGlynn Stoke City Aktiv 116 / 120 40% 1 28.12.2026 -
Thiago Acosta River Plate Aktiv 114 / 121 40% 1 21.12.2026 -
Nicolás Ortiz Leganés Aktiv 92 / 100 40% 1 04.12.2026 -
Matías Magdaleno Estudiantes Aktiv 98 / 108 40% 1 04.12.2026 -
Claudy M'Buyi Rapid Wien Aktiv 122 / 126 40% 3 02.12.2026 -
Ignacio Ovando Rosario Central Aktiv 105 / 119 40% 1 02.12.2026 -
Nuno Santos Mamelodi Sundowns Aktiv 128 / 130 40% 1 02.12.2026 -
David Miculescu FCSB Aktiv 128 / 116 40% 3 29.11.2026 Beobachten
Wessam Abou Ali Columbus Crew Aktiv 119 / 125 40% 1 28.11.2026 -
Andile Manyama Ajax Cape Town Aktiv 104 / 90 40% 4 27.11.2026 -
Bahlul Mammadov Inter Aktiv 120 / 122 40% 2 27.11.2026 -
Bénie Traoré New York City Aktiv 132 / 128 40% 1 27.11.2026 -
Troy Parrott Betis Aktiv 124 / 146 40% 7 25.11.2026 -
Wandile Duba Maritzburg United Aktiv 103 / 120 40% 1 25.11.2026 -
Ammar Ramadan DAC Dunajska Streda Aktiv 113 / 117 40% 3 24.11.2026 -
Juan Carlos Arana Racing Santander Aktiv 132 / 139 40% 1 23.11.2026 -
Dario Vizinger NK Maribor Aktiv 119 / 106 40% 2 22.11.2026 -
Manu Nieto Andorra Aktiv 109 / 123 40% 3 21.11.2026 -
Camilo Durán Bloemfontein Celtic Aktiv 116 / 123 40% 3 18.11.2026 -
Fabricio Oviedo Rosario Central Aktiv 112 / 108 40% 3 18.11.2026 -
Etiosa Ighodaro Kaizer Chiefs Aktiv 108 / 116 40% 4 17.11.2026 -
Xavier Biscayzacú Sporting CP Aktiv 131 / 134 40% 2 15.11.2026 -
Gonzalo Córdoba Mitre Aktiv 112 / 114 40% 3 13.11.2026 -
Samuel Kalu Botev Plovdiv Aktiv 113 / 124 40% 1 09.11.2026 -
Marcelo Torres Gimnasia La Plata Aktiv 125 / 122 40% 5 08.11.2026 -
Job Ochieng Real Sociedad Aktiv 103 / 108 40% 2 07.11.2026 -
Håkon Evjen Bodo/Glimt Aktiv 147 / 137 40% 1 07.11.2026 Mehr Infos nötig
Reda Khadra Qarabag Aktiv 134 / 123 40% 1 06.11.2026 Mehr Infos nötig
Emi Rodriguez Leon Aktiv 118 / 133 40% 1 06.11.2026 Mehr Infos nötig
Tomás Chancalay Minnesota United FC Aktiv 130 / 127 40% 1 04.11.2026 -
Erik Botheim Viking Aktiv 132 / 124 40% 1 29.10.2026 -
Liel Abada Charlotte Football Club Aktiv 147 / 114 40% 4 26.10.2026 -
Matej Trusa DAC Dunajska Streda Aktiv 127 / 117 40% 1 26.10.2026 -
Veljko Birmančević Ferencvaros Aktiv 121 / 127 40% 6 25.10.2026 -
José Balza Deportivo Tachira Aktiv 113 / 110 40% 2 24.10.2026 -
Brayan Gil Baltika Aktiv 113 / 131 40% 5 20.10.2026 -
Oscar Osorio Atletico Venezuela Aktiv 106 / 108 40% 3 19.10.2026 -
Tobías Andrada Betis Aktiv 127 / 132 40% 1 19.10.2026 -
Enzo Larrosa Independiente Medellin Aktiv 106 / 114 40% 2 17.10.2026 -
Karim Konaté Red Bull Salzburg Aktiv 134 / 154 40% 1 14.10.2026 -
Román Lozada Vélez Aktiv 88 / 104 40% 1 05.10.2026 -
Ignacio Sabatini Gimnasia y Esgrima Aktiv 108 / 98 40% 1 03.10.2026 -
Oscar Ferraresi Llaneros Aktiv 101 / 112 40% 2 02.10.2026 -
Genaro Rossi San Martín SJ Aktiv 111 / 118 40% 2 01.10.2026 -
César Magallan Estudiantes de Merida Aktiv 101 / 105 40% 3 29.09.2026 -
Kevin Isa Luna Central Norte Aktiv 104 / 101 40% 1 27.09.2026 -
Armstrong Oko-Flex Levski Aktiv 118 / 132 40% 2 26.09.2026 -
Ramiro Ruiz Rodríguez Atlético Tucumán Aktiv 123 / 114 40% 2 22.09.2026 -
Eric Ramírez Carabobo Aktiv 110 / 113 40% 3 20.09.2026 -
Sam Nombe Milton Keynes Dons Aktiv 123 / 98 40% 1 16.09.2026 -
Mariano Peralta Bauer Defensa y Justicia Aktiv 98 / 110 40% 1 13.09.2026 -
Mateo Acuña Vélez Aktiv 95 / 96 40% 1 12.09.2026 -
Inti Borghetto Patronato Aktiv 93 / 99 40% 1 12.09.2026 -
Francisco Galván Deportivo Municipal Aktiv 113 / 110 40% 1 10.09.2026 Mehr Infos nötig
Leandro Godoy CSKA Sofia Aktiv 123 / 107 40% 2 09.09.2026 -
Adalberto Peñaranda Deportivo Tachira Aktiv 116 / 104 40% 1 30.08.2026 -
Federico Girotti Alianza Lima Aktiv 112 / 122 40% 3 28.08.2026 -
Lucas González Nacional Aktiv 105 / 108 40% 1 27.08.2026 -
Lucas Besozzi Lanús Aktiv 122 / 114 40% 2 20.08.2026 -
Yanela Mbuthuma Orlando Pirates Aktiv 119 / 101 40% 1 18.08.2026 -
Marcos Camarda Santiago Wanderers Aktiv 104 / 113 40% 1 17.08.2026 -
Arthur Sales Mamelodi Sundowns Aktiv 118 / 101 40% 1 17.08.2026 -
Luther Tau SuperSport United Aktiv 99 / 108 40% 1 10.08.2026 -
Fabricio Rojas Gimnasia y Tiro Aktiv 109 / 102 40% 1 09.08.2026 -
Agustín Venezia Iquique Aktiv 111 / 102 40% 1 02.08.2026 -
Marcelo Flores Tigres Aktiv 109 / 114 40% 1 02.08.2026 -
Hugo Cuypers Monterrey Aktiv 136 / 135 40% 1 01.08.2026 -